CheckWX is a tool to help pilots better visualize weather data.  It is not intended as a substitute for an official pre-flight weather briefing.

11:32:50 UTC

KABR METAR
Aberdeen Regional Airport
Aberdeen, South Dakota, USA
Current

40 mins ago

KABR 041053Z AUTO 15005KT 10SM CLR M13/M15 A3024 RMK AO2 SLP265 I1000 T11281150
Observed
Apr-4 @ 10:53 UTC
Wind
  • 150° at 5 KTS
Visibility
Flight Rules
VFR
Cloud Levels
  • Clear skies
Temperature
-13°C / 9°F
Dewpoint
-15°C / 5°F
Humidity
85%
Altimeter
30.24" Hg
Pressure
1024.02 hPa
Previous

2 hours ago

KABR 040953Z AUTO 14004KT 10SM CLR M13/M14 A3025 RMK AO2 SLP267 I1000 T11331144
Observed
Apr-4 @ 09:53 UTC
Wind
  • 140° at 4 KTS
Visibility
Flight Rules
VFR
Cloud Levels
  • Clear skies
Temperature
-13°C / 9°F
Dewpoint
-14°C / 7°F
Humidity
92%
Altimeter
30.25" Hg
Pressure
1024.42 hPa
Previous

3 hours ago

KABR 040853Z AUTO 00000KT 10SM CLR M12/M13 A3026 RMK AO2 SLP271 I1000 I3001 T11171133 58004
Observed
Apr-4 @ 08:53 UTC
Visibility
Flight Rules
VFR
Cloud Levels
  • Clear skies
Temperature
-12°C / 10°F
Dewpoint
-13°C / 9°F
Humidity
92%
Altimeter
30.26" Hg
Pressure
1024.72 hPa